createdAt,value
2023-11-05T00:20:34.274Z,966.488
2023-11-05T00:50:55.908Z,965.9929
2023-11-05T01:21:15.095Z,965.635
2023-11-05T01:51:33.075Z,964.8969999999999
2023-11-05T02:21:51.296Z,964.413
2023-11-05T02:52:19.265Z,964.295
2023-11-05T03:22:38.187Z,964.2099000000001
2023-11-05T03:52:55.582Z,964.0471000000001
2023-11-05T04:23:24.493Z,963.6179
2023-11-05T04:53:43.796Z,963.573
2023-11-05T05:24:03.181Z,963.591
2023-11-05T05:54:24.297Z,963.783
2023-11-05T06:24:44.802Z,963.9889999999999
2023-11-05T06:55:04.533Z,964.221
2023-11-05T07:25:23.092Z,964.4019999999999
2023-11-05T08:26:10.282Z,965.485
2023-11-05T08:56:29.121Z,966.0260000000001
2023-11-05T09:26:47.280Z,966.924
2023-11-05T10:27:24.769Z,968.1179
2023-11-05T10:57:44.256Z,968.515
2023-11-05T11:28:03.152Z,969.0578999999999
2023-11-05T12:28:42.137Z,970.117
2023-11-05T12:59:01.115Z,971.054
2023-11-05T13:29:19.961Z,971.971
2023-11-05T13:59:35.969Z,972.7239999999999
2023-11-05T14:29:53.501Z,973.7180000000001
2023-11-05T15:00:14.029Z,974.436
2023-11-05T15:30:30.820Z,975.4089
2023-11-05T16:00:49.370Z,976.385
2023-11-05T16:31:06.302Z,977.4839
2023-11-05T17:01:23.324Z,978.752
2023-11-05T17:31:40.174Z,979.564
2023-11-05T18:01:57.391Z,980.6399
2023-11-05T18:32:17.116Z,981.2560000000001
2023-11-05T19:02:36.333Z,981.885
2023-11-05T19:32:55.368Z,982.591
2023-11-05T20:03:13.958Z,983.306
2023-11-05T20:33:30.992Z,983.9960000000001
2023-11-05T21:34:12.800Z,985.0228999999999
2023-11-05T22:04:34.789Z,985.1610000000001
2023-11-05T22:34:54.427Z,985.7810000000001
2023-11-05T23:05:12.769Z,985.998
2023-11-05T23:35:30.728Z,986.2139999999999
